aviador You're here:

KHKY Decoded Metar

HICKORY in NC, USA
Report Time2017-08-19 14:53:00
UTC Time2017-08-19 15:01:32
Flight Rules vfr VFR
Wind350° at 05 kt
W.Decomp.*RWY 01: 4.9 kt HW 1.2 kt LCW
RWY 06: 2.2 kt HW 4.5 kt LCW
W.Rank350° ranks 18
Current wind is above 350° avg. (4.7)
Visibility9999 m
Phenomena:N/A
Clouds:Few 050 Hf
Expected CloudBase > 3,600 ft AGL from Temp-Dew spread
CeilingNone
Temp27°C (ISA +14)
Dew Point18°C (58% RH)
Heat Index27.9°C
QNH1017 hPa
Density Alt2,949 ft
Elevation1,161 ft
Report Wrong Elevation
Raw Report
KHKY 191453Z 35005KT 10SM FEW050 27/18 A3003 RMK AO2 SLP145
T02670183 53008=

Extra information for KHKY:More info

Metar Taf Metar & Taf Last 4 Metars F.Rules Stats Wind Profile Meteogram Temp Stats Airport Information Weather charts Add Link Nearby VenuesMetar ALERT Operation Metar Decoded Social comments

AIRNAV info for KHKY